Aragon, Georgia
Current Conditions -  °F | °C
As of 1:55 AM on Thursday 27 Nov 2014 (Local Time) from KPUJ Reporting Station
Clear Clear  
Wind Chill: 39°   Ceiling: Unl
Heat Index: 45°   Visibility: 10mi
Dew Point: 28°   Wind: 12mph
Humidity: 53%   Direction: 290°WNW
Pressure: 30.08"   Gusts: 18mph
Location:  34.05°N, 85.06°W
Report Text: KPUJ 270655Z AUTO 29010G16KT 10SM CLR 07/M02 A3008 RMK AO2
Loading
Personal Weather Stations






























Interactive Weather Map New forecast layout! Learn more

10-Day Weather Forecast

Advertisements
Track Severe Weather on mobile